createdAt,value
2019-01-30T00:03:56.577Z,50.7
2019-01-30T00:09:01.962Z,50.7
2019-01-30T00:14:08.246Z,50.7
2019-01-30T00:19:14.305Z,50.8
2019-01-30T00:24:20.028Z,50.9
2019-01-30T00:29:24.958Z,50.8
2019-01-30T00:34:30.622Z,50.8
2019-01-30T00:39:36.575Z,50.8
2019-01-30T00:44:42.275Z,50.8
2019-01-30T00:49:47.292Z,50.8
2019-01-30T00:54:52.288Z,50.8
2019-01-30T00:59:57.421Z,50.8
2019-01-30T01:05:03.277Z,50.7
2019-01-30T01:10:08.453Z,50.7
2019-01-30T01:15:13.317Z,50.7
2019-01-30T01:20:18.650Z,50.8
2019-01-30T01:25:24.317Z,50.8
2019-01-30T01:30:30.207Z,50.8
2019-01-30T01:35:36.378Z,50.7
2019-01-30T01:40:41.853Z,50.8
2019-01-30T01:45:47.364Z,50.9
2019-01-30T01:50:52.420Z,50.8
2019-01-30T01:55:57.818Z,50.7
2019-01-30T02:01:02.989Z,50.8
2019-01-30T02:06:08.957Z,50.7
2019-01-30T02:11:14.945Z,50.8
2019-01-30T02:16:21.215Z,50.9
2019-01-30T02:21:26.588Z,51.6
2019-01-30T02:26:32.614Z,50.8
2019-01-30T02:31:37.560Z,50.8
2019-01-30T02:36:42.667Z,50.8
2019-01-30T02:41:48.308Z,50.8
2019-01-30T02:46:54.627Z,50.8
2019-01-30T02:52:00.267Z,51
2019-01-30T02:57:05.476Z,50.8
2019-01-30T03:02:10.737Z,50.7
2019-01-30T03:07:16.442Z,50.8
2019-01-30T03:12:22.187Z,50.8
2019-01-30T03:17:27.721Z,50.7
2019-01-30T03:22:32.182Z,50.7
2019-01-30T03:27:36.442Z,50.7
2019-01-30T03:32:42.024Z,50.7
2019-01-30T03:37:47.135Z,50.7
2019-01-30T03:42:52.373Z,50.7
2019-01-30T03:47:58.024Z,50.7
2019-01-30T03:53:03.034Z,50.7
2019-01-30T03:58:08.493Z,50.7
2019-01-30T04:03:14.343Z,50.7
2019-01-30T04:08:19.572Z,50.7
2019-01-30T04:13:24.848Z,50.7
2019-01-30T04:18:31.097Z,50.7
2019-01-30T04:23:36.331Z,50.7
2019-01-30T04:28:42.092Z,50.7
2019-01-30T04:33:47.378Z,50.7
2019-01-30T04:38:51.674Z,50.7
2019-01-30T04:43:57.487Z,50.7
2019-01-30T04:49:02.701Z,50.7
2019-01-30T04:54:08.516Z,50.6
2019-01-30T04:59:12.897Z,50.7
2019-01-30T05:04:17.831Z,50.6
2019-01-30T05:09:23.161Z,50.7
2019-01-30T05:14:28.189Z,50.6
2019-01-30T05:19:33.581Z,50.5
2019-01-30T05:24:39.057Z,50.5
2019-01-30T05:29:44.118Z,50.4
2019-01-30T05:34:49.118Z,50.4
2019-01-30T05:39:55.383Z,50.4
2019-01-30T05:45:00.769Z,50.4
2019-01-30T05:50:06.559Z,48.9
2019-01-30T05:55:12.223Z,49.1
2019-01-30T06:00:17.453Z,49
2019-01-30T06:05:23.065Z,48.1
2019-01-30T06:10:28.971Z,48.8
2019-01-30T06:15:34.059Z,48.8
2019-01-30T06:20:39.377Z,48.9
2019-01-30T06:25:45.040Z,49
2019-01-30T06:30:45.685Z,49.1
2019-01-30T06:35:50.074Z,49
2019-01-30T06:40:56.163Z,49.2
2019-01-30T06:46:01.445Z,49.2
2019-01-30T06:51:06.753Z,49.3
2019-01-30T06:56:12.239Z,49.3
2019-01-30T07:01:17.329Z,49.5
2019-01-30T07:06:23.479Z,49.5
2019-01-30T07:11:29.760Z,49.8
2019-01-30T07:16:35.436Z,49.8
2019-01-30T07:21:41.096Z,49.3
2019-01-30T07:26:46.444Z,49.4
2019-01-30T07:31:52.368Z,49.6
2019-01-30T07:36:57.464Z,49.5
2019-01-30T07:42:02.911Z,49.7
2019-01-30T07:47:08.477Z,49.7
2019-01-30T07:52:14.015Z,49.6
2019-01-30T07:57:19.707Z,49.6
2019-01-30T08:02:24.920Z,49.6
2019-01-30T08:07:30.568Z,49.6
2019-01-30T08:22:49.445Z,49.5
2019-01-30T08:27:56.362Z,48.2
2019-01-30T08:33:08.207Z,43.3
2019-01-30T08:38:03.392Z,43.4
2019-01-30T08:43:09.226Z,45.5
2019-01-30T08:48:15.016Z,46
2019-01-30T08:58:24.799Z,46.8
2019-01-30T09:03:30.744Z,46.8
2019-01-30T09:08:36.332Z,46.4
2019-01-30T09:13:41.850Z,47.3
2019-01-30T09:18:46.848Z,47.3
2019-01-30T09:23:51.917Z,47.5
2019-01-30T09:34:05.879Z,47.9
2019-01-30T09:39:11.138Z,47.8
2019-01-30T09:49:21.189Z,47
2019-01-30T09:54:27.475Z,46.9
2019-01-30T09:59:34.054Z,46.8
2019-01-30T10:04:40.062Z,46.8
2019-01-30T10:09:45.400Z,47
2019-01-30T10:19:56.304Z,47.3
2019-01-30T10:25:01.810Z,47.3
2019-01-30T10:30:07.150Z,47.5
2019-01-30T10:35:12.816Z,47.6
2019-01-30T10:40:18.341Z,47.6
2019-01-30T10:45:23.394Z,47.7
2019-01-30T10:50:29.021Z,47.7
2019-01-30T10:55:34.530Z,47.9
2019-01-30T11:00:39.778Z,47.9
2019-01-30T11:05:47.153Z,47.9
2019-01-30T11:10:53.739Z,47.9
2019-01-30T11:16:02.058Z,48
2019-01-30T11:21:08.645Z,48
2019-01-30T11:26:13.817Z,47.9
2019-01-30T11:31:19.519Z,48
2019-01-30T11:41:29.301Z,48
2019-01-30T11:46:34.967Z,48
2019-01-30T11:51:40.324Z,48
2019-01-30T11:56:45.688Z,48
2019-01-30T12:01:51.136Z,47.9
2019-01-30T12:06:56.150Z,48
2019-01-30T12:12:01.149Z,48
2019-01-30T12:17:07.106Z,48
2019-01-30T12:22:12.051Z,48
2019-01-30T12:27:17.207Z,48.1
2019-01-30T12:32:22.434Z,48
2019-01-30T12:37:28.231Z,48
2019-01-30T12:42:33.471Z,48
2019-01-30T12:47:39.255Z,48
2019-01-30T12:52:44.696Z,48.3
2019-01-30T12:57:50.334Z,48.4
2019-01-30T13:02:55.357Z,48.3
2019-01-30T13:08:00.430Z,48.5
2019-01-30T13:13:05.632Z,48.7
2019-01-30T13:18:20.844Z,48.7
2019-01-30T13:23:15.847Z,48.6
2019-01-30T13:28:21.107Z,48.7
2019-01-30T13:33:26.023Z,49.1
2019-01-30T13:38:31.825Z,49
2019-01-30T13:43:37.050Z,49.5
2019-01-30T13:48:42.964Z,49.2
2019-01-30T13:53:48.697Z,49.3
2019-01-30T13:58:54.313Z,49.3
2019-01-30T14:03:59.403Z,49.6
2019-01-30T14:09:03.716Z,46.8
2019-01-30T14:14:09.634Z,47.7
2019-01-30T14:19:15.048Z,42.8
2019-01-30T14:24:21.516Z,43
2019-01-30T14:29:28.545Z,44.4
2019-01-30T14:34:33.523Z,44.4
2019-01-30T14:39:39.111Z,44.7
2019-01-30T14:44:45.000Z,40.8
2019-01-30T14:49:51.619Z,41
2019-01-30T14:54:57.613Z,41
2019-01-30T15:00:03.286Z,40.4
2019-01-30T15:05:09.708Z,39.8
2019-01-30T15:10:15.928Z,40.1
2019-01-30T15:15:21.264Z,41.8
2019-01-30T15:20:32.318Z,43.1
2019-01-30T15:25:27.358Z,43.1
2019-01-30T15:30:33.033Z,45.5
2019-01-30T15:35:38.071Z,45.6
2019-01-30T15:40:43.173Z,47.3
2019-01-30T15:45:48.267Z,47.3
2019-01-30T15:50:53.847Z,36.8
2019-01-30T15:55:59.883Z,37.8
2019-01-30T16:01:05.356Z,40.9
2019-01-30T16:06:11.167Z,42.5
2019-01-30T16:11:16.871Z,44.7
2019-01-30T16:16:22.048Z,44.8
2019-01-30T16:21:27.809Z,44.8
2019-01-30T16:26:29.323Z,44.8
2019-01-30T16:31:35.860Z,45.2
2019-01-30T16:36:44.244Z,45.3
2019-01-30T16:41:41.627Z,45.2
2019-01-30T16:46:47.402Z,45.5
2019-01-30T16:51:53.132Z,45.7
2019-01-30T16:56:58.763Z,45.9
2019-01-30T17:02:04.320Z,46.1
2019-01-30T17:07:09.695Z,46.6
2019-01-30T17:12:15.130Z,46.7
2019-01-30T17:17:20.404Z,46.8
2019-01-30T17:22:26.582Z,47.3
2019-01-30T17:27:32.673Z,47.3
2019-01-30T17:32:38.355Z,47.5
2019-01-30T17:37:43.986Z,47.5
2019-01-30T17:42:49.808Z,47.6
2019-01-30T17:47:55.448Z,47
2019-01-30T17:53:00.699Z,47.2
2019-01-30T17:58:06.143Z,47.5
2019-01-30T18:03:12.313Z,47.8
2019-01-30T18:08:17.897Z,47.9
2019-01-30T18:13:23.081Z,48.3
2019-01-30T18:18:28.670Z,48.6
2019-01-30T18:23:34.264Z,48.6
2019-01-30T18:28:39.463Z,49.4
2019-01-30T18:33:45.585Z,49.5
2019-01-30T18:38:51.277Z,49
2019-01-30T18:43:55.986Z,35.3
2019-01-30T18:49:01.211Z,34.9
2019-01-30T18:54:07.028Z,38
2019-01-30T18:59:12.429Z,39.4
2019-01-30T19:04:17.961Z,40.6
2019-01-30T19:09:23.040Z,42
2019-01-30T19:14:29.110Z,42.9
2019-01-30T19:19:34.629Z,43.9
2019-01-30T19:24:40.873Z,44.4
2019-01-30T19:29:47.885Z,44.4
2019-01-30T19:34:53.805Z,44.8
2019-01-30T19:39:58.908Z,44.8
2019-01-30T19:45:04.506Z,44.9
2019-01-30T19:50:08.339Z,45.1
2019-01-30T19:55:14.293Z,45.2
2019-01-30T20:00:20.120Z,46.6
2019-01-30T20:05:25.827Z,45.6
2019-01-30T20:10:31.419Z,45.8
2019-01-30T20:15:37.590Z,45.9
2019-01-30T20:20:43.257Z,45.9
2019-01-30T20:25:49.278Z,46.1
2019-01-30T20:30:54.587Z,46.1
2019-01-30T20:36:00.487Z,46.3
2019-01-30T20:41:06.082Z,46.4
2019-01-30T20:51:16.345Z,46.9
2019-01-30T20:56:21.625Z,46.9
2019-01-30T21:01:26.001Z,47.6
2019-01-30T21:06:25.982Z,47.2
2019-01-30T21:11:31.681Z,47.2
2019-01-30T21:16:37.385Z,47.4
2019-01-30T21:21:42.901Z,47.6
2019-01-30T21:26:49.116Z,48
2019-01-30T21:31:57.387Z,48
2019-01-30T21:37:01.842Z,48
2019-01-30T21:42:06.831Z,48.2
2019-01-30T21:47:13.179Z,48.6
2019-01-30T21:52:18.834Z,48.7
2019-01-30T21:57:24.968Z,48.9
2019-01-30T22:02:31.038Z,48.9
2019-01-30T22:07:31.582Z,48.7
2019-01-30T22:12:37.231Z,48.7
2019-01-30T22:17:43.175Z,48.7
2019-01-30T22:22:48.399Z,49.6
2019-01-30T22:27:51.976Z,49.9
2019-01-30T22:38:13.893Z,50.9
2019-01-30T22:43:09.386Z,50.9
2019-01-30T22:48:15.216Z,50.9
2019-01-30T22:53:20.418Z,51.1
2019-01-30T22:58:26.118Z,51
2019-01-30T23:03:33.856Z,51.1
2019-01-30T23:08:39.650Z,51.1
2019-01-30T23:13:45.222Z,51.1
2019-01-30T23:18:50.568Z,51.1
2019-01-30T23:23:56.004Z,51.1
2019-01-30T23:29:02.569Z,51.1
2019-01-30T23:34:08.265Z,51.1
2019-01-30T23:39:13.905Z,51
2019-01-30T23:44:19.466Z,51
2019-01-30T23:49:25.699Z,51.1
2019-01-30T23:54:31.210Z,51.1
2019-01-30T23:59:37.348Z,51
